createdAt,value
2023-09-11T00:00:40.806Z,6.68
2023-09-11T00:06:05.447Z,6.53
2023-09-11T00:11:27.899Z,7.13
2023-09-11T00:16:49.727Z,6.57
2023-09-11T00:22:11.515Z,6.40
2023-09-11T00:27:33.276Z,6.60
2023-09-11T00:32:55.289Z,6.50
2023-09-11T00:38:17.091Z,6.38
2023-09-11T00:43:38.901Z,7.47
2023-09-11T00:49:00.928Z,6.50
2023-09-11T00:54:24.497Z,6.82
2023-09-11T00:59:47.057Z,7.72
2023-09-11T01:05:09.917Z,6.93
2023-09-11T01:10:31.811Z,6.93
2023-09-11T01:16:06.189Z,7.85
2023-09-11T01:22:07.949Z,7.43
2023-09-11T01:27:42.730Z,6.88
2023-09-11T01:33:05.376Z,7.43
2023-09-11T01:38:27.273Z,7.63
2023-09-11T01:43:51.178Z,7.07
2023-09-11T01:49:14.565Z,7.85
2023-09-11T01:54:37.090Z,7.75
2023-09-11T01:59:58.892Z,7.85
2023-09-11T02:05:20.673Z,8.00
2023-09-11T02:10:42.392Z,7.05
2023-09-11T02:16:04.315Z,8.02
2023-09-11T02:21:26.083Z,7.97
2023-09-11T02:26:47.817Z,7.80
2023-09-11T02:32:09.626Z,8.07
2023-09-11T02:37:31.371Z,8.00
2023-09-11T02:42:53.190Z,7.45
2023-09-11T02:48:15.019Z,8.95
2023-09-11T02:53:36.837Z,8.70
2023-09-11T02:58:58.553Z,9.00
2023-09-11T03:04:20.261Z,8.20
2023-09-11T03:09:42.051Z,8.30
2023-09-11T03:15:04.196Z,8.30
2023-09-11T03:20:26.017Z,8.10
2023-09-11T03:25:47.825Z,7.93
2023-09-11T03:31:09.607Z,8.73
2023-09-11T03:36:31.389Z,9.18
2023-09-11T03:41:53.172Z,8.70
2023-09-11T03:47:14.941Z,8.65
2023-09-11T03:52:36.688Z,8.05
2023-09-11T03:57:58.462Z,8.65
2023-09-11T04:03:20.354Z,8.38
2023-09-11T04:08:42.217Z,9.00
2023-09-11T04:14:04.087Z,9.25
2023-09-11T04:19:25.875Z,9.48
2023-09-11T04:24:47.730Z,8.60
2023-09-11T04:30:09.856Z,8.77
2023-09-11T04:35:31.663Z,7.68
2023-09-11T04:40:57.658Z,9.55
2023-09-11T04:46:19.420Z,9.13
2023-09-11T04:51:41.216Z,9.23
2023-09-11T04:57:03.176Z,8.48
2023-09-11T05:02:25.122Z,9.45
2023-09-11T05:07:46.936Z,9.95
2023-09-11T05:13:08.826Z,9.18
2023-09-11T05:18:30.739Z,9.27
2023-09-11T05:23:52.605Z,9.65
2023-09-11T05:29:14.419Z,9.52
2023-09-11T05:34:36.319Z,9.32
2023-09-11T05:39:58.121Z,8.25
2023-09-11T05:45:19.972Z,10.07
2023-09-11T05:50:41.721Z,9.43
2023-09-11T05:56:03.731Z,9.98
2023-09-11T06:01:25.589Z,10.60
2023-09-11T06:06:47.450Z,10.07
2023-09-11T06:12:09.412Z,9.93
2023-09-11T06:17:43.428Z,10.07
2023-09-11T06:23:07.095Z,10.40
2023-09-11T06:28:28.843Z,9.52
2023-09-11T06:33:50.790Z,9.88
2023-09-11T06:39:12.606Z,9.90
2023-09-11T06:44:34.410Z,9.55
2023-09-11T06:49:56.198Z,9.27
2023-09-11T06:55:18.011Z,8.55
2023-09-11T07:00:40.420Z,9.55
2023-09-11T07:06:02.458Z,8.00
2023-09-11T07:11:24.247Z,7.45
2023-09-11T07:16:46.079Z,7.60
2023-09-11T07:22:07.838Z,7.13
2023-09-11T07:27:29.791Z,6.63
2023-09-11T07:32:51.665Z,7.85
2023-09-11T07:38:13.658Z,6.93
2023-09-11T07:43:35.488Z,8.13
2023-09-11T07:48:59.679Z,6.60
2023-09-11T07:54:22.233Z,6.93
2023-09-11T07:59:44.018Z,7.17
2023-09-11T08:05:05.989Z,6.77
2023-09-11T08:15:49.648Z,7.07
2023-09-11T08:21:11.849Z,7.03
2023-09-11T08:26:33.865Z,6.03
2023-09-11T08:31:55.616Z,6.57
2023-09-11T08:37:17.542Z,6.70
2023-09-11T08:42:39.418Z,7.10
2023-09-11T08:48:06.490Z,6.32
2023-09-11T08:53:32.128Z,7.18
2023-09-11T08:58:54.416Z,6.60
2023-09-11T09:04:17.625Z,6.53
2023-09-11T09:09:40.370Z,7.28
2023-09-11T09:15:05.109Z,7.05
2023-09-11T09:20:31.308Z,6.97
2023-09-11T09:26:03.598Z,6.93
2023-09-11T09:31:25.843Z,6.68
2023-09-11T09:36:52.418Z,6.60
2023-09-11T09:42:14.284Z,6.63
2023-09-11T09:47:36.190Z,6.15
2023-09-11T09:52:59.082Z,5.97
2023-09-11T09:58:25.219Z,6.03
2023-09-11T10:03:50.246Z,6.50
2023-09-11T10:09:14.071Z,6.15
2023-09-11T10:14:35.975Z,6.38
2023-09-11T10:19:57.857Z,6.15
2023-09-11T10:25:22.133Z,5.77
2023-09-11T10:31:32.793Z,5.38
2023-09-11T10:36:58.316Z,5.67
2023-09-11T10:42:20.347Z,6.10
2023-09-11T10:47:50.733Z,5.47
2023-09-11T10:53:12.637Z,5.25
2023-09-11T10:58:36.028Z,5.22
2023-09-11T11:03:57.968Z,6.10
2023-09-11T11:09:33.103Z,5.53
2023-09-11T11:15:21.587Z,6.05
2023-09-11T11:21:04.334Z,5.50
2023-09-11T11:26:30.949Z,5.60
2023-09-11T11:31:54.818Z,5.40
2023-09-11T11:37:17.338Z,5.68
2023-09-11T11:42:39.661Z,5.68
2023-09-11T11:48:01.529Z,5.10
2023-09-11T11:53:24.954Z,5.35
2023-09-11T11:58:46.753Z,5.00
2023-09-11T12:04:08.706Z,5.18
2023-09-11T12:09:30.720Z,5.68
2023-09-11T12:14:56.706Z,5.60
2023-09-11T12:20:21.239Z,5.32
2023-09-11T12:25:43.118Z,5.40
2023-09-11T12:31:05.077Z,5.07
2023-09-11T12:36:27.415Z,5.90
2023-09-11T12:41:49.374Z,6.22
2023-09-11T12:47:11.814Z,6.55
2023-09-11T12:52:33.774Z,5.78
2023-09-11T12:57:57.067Z,5.65
2023-09-11T13:03:19.027Z,5.93
2023-09-11T13:08:41.584Z,6.00
2023-09-11T13:14:15.446Z,6.32
2023-09-11T13:19:38.631Z,7.72
2023-09-11T13:25:01.727Z,6.75
2023-09-11T13:30:23.816Z,6.25
2023-09-11T13:35:45.697Z,6.53
2023-09-11T13:41:07.554Z,7.07
2023-09-11T13:46:29.370Z,6.65
2023-09-11T13:51:51.159Z,6.35
2023-09-11T13:57:13.700Z,6.95
2023-09-11T14:02:35.717Z,6.40
2023-09-11T14:07:57.521Z,6.50
2023-09-11T14:13:19.280Z,7.40
2023-09-11T14:18:41.476Z,7.22
2023-09-11T14:24:03.842Z,6.43
2023-09-11T14:29:25.646Z,6.70
2023-09-11T14:34:47.373Z,6.70
2023-09-11T14:40:11.211Z,6.78
2023-09-11T14:45:33.063Z,6.40
2023-09-11T14:50:54.892Z,7.55
2023-09-11T14:56:16.680Z,7.53
2023-09-11T15:01:38.533Z,8.07
2023-09-11T15:07:00.494Z,8.27
2023-09-11T15:12:22.309Z,7.72
2023-09-11T15:17:44.217Z,7.10
2023-09-11T15:23:06.363Z,7.55
2023-09-11T15:28:28.169Z,7.10
2023-09-11T15:33:50.047Z,7.28
2023-09-11T15:39:11.931Z,7.60
2023-09-11T15:44:33.771Z,7.50
2023-09-11T15:49:55.652Z,7.63
2023-09-11T15:55:17.434Z,7.45
2023-09-11T16:00:39.235Z,7.97
2023-09-11T16:06:01.057Z,7.60
2023-09-11T16:11:22.932Z,7.32
2023-09-11T16:16:44.823Z,7.20
2023-09-11T16:22:06.586Z,8.23
2023-09-11T16:27:28.472Z,7.60
2023-09-11T16:32:51.811Z,7.80
2023-09-11T16:38:13.883Z,7.68
2023-09-11T16:43:35.629Z,8.10
2023-09-11T16:48:57.463Z,8.30
2023-09-11T16:54:19.296Z,8.13
2023-09-11T16:59:41.146Z,8.43
2023-09-11T17:05:03.614Z,8.82
2023-09-11T17:10:25.531Z,9.13
2023-09-11T17:15:47.434Z,9.45
2023-09-11T17:21:09.234Z,10.65
2023-09-11T17:26:31.126Z,10.65
2023-09-11T17:31:54.738Z,10.77
2023-09-11T17:37:16.816Z,10.02
2023-09-11T17:42:39.415Z,11.02
2023-09-11T17:48:01.219Z,11.48
2023-09-11T17:53:23.049Z,12.07
2023-09-11T17:58:44.844Z,14.57
2023-09-11T18:04:06.812Z,13.52
2023-09-11T18:09:28.754Z,14.57
2023-09-11T18:14:50.634Z,13.25
2023-09-11T18:20:12.577Z,13.57
2023-09-11T18:25:38.618Z,13.32
2023-09-11T18:31:00.415Z,13.32
2023-09-11T18:36:22.333Z,12.95
2023-09-11T18:41:44.093Z,12.77
2023-09-11T18:47:05.890Z,13.82
2023-09-11T18:52:27.729Z,13.00
2023-09-11T18:57:49.592Z,13.13
2023-09-11T19:03:11.722Z,13.48
2023-09-11T19:08:33.647Z,12.82
2023-09-11T19:13:55.426Z,13.63
2023-09-11T19:19:17.202Z,14.57
2023-09-11T19:24:38.984Z,14.10
2023-09-11T19:30:00.810Z,15.02
2023-09-11T19:35:22.652Z,14.07
2023-09-11T19:40:44.483Z,13.82
2023-09-11T19:46:07.151Z,15.20
2023-09-11T19:51:29.401Z,14.27
2023-09-11T19:56:51.316Z,13.75
2023-09-11T20:02:13.116Z,14.43
2023-09-11T20:07:34.898Z,13.88
2023-09-11T20:12:56.665Z,14.35
2023-09-11T20:18:18.504Z,14.00
2023-09-11T20:23:40.344Z,15.48
2023-09-11T20:29:02.112Z,15.23
2023-09-11T20:34:23.874Z,15.07
2023-09-11T20:39:45.618Z,14.10
2023-09-11T20:45:08.002Z,15.32
2023-09-11T20:50:29.781Z,14.25
2023-09-11T20:55:51.590Z,15.88
2023-09-11T21:01:13.695Z,16.02
2023-09-11T21:06:35.529Z,14.73
2023-09-11T21:11:57.456Z,15.05
2023-09-11T21:17:19.298Z,17.30
2023-09-11T21:22:41.440Z,17.05
2023-09-11T21:28:03.400Z,16.80
2023-09-11T21:33:25.285Z,17.70
2023-09-11T21:38:47.036Z,19.55
2023-09-11T21:44:08.796Z,19.35
2023-09-11T21:49:30.559Z,17.42
2023-09-11T21:54:52.313Z,16.83
2023-09-11T22:00:14.462Z,17.85
2023-09-11T22:05:36.251Z,18.73
2023-09-11T22:10:58.025Z,16.60
2023-09-11T22:16:20.158Z,16.35
2023-09-11T22:21:41.957Z,16.17
2023-09-11T22:27:17.322Z,17.60
2023-09-11T22:32:55.447Z,16.92
2023-09-11T22:38:18.149Z,17.17
2023-09-11T22:43:40.109Z,16.80
2023-09-11T22:49:02.226Z,16.33
2023-09-11T22:54:24.148Z,15.90
2023-09-11T22:59:45.898Z,16.83
2023-09-11T23:05:07.963Z,17.15
2023-09-11T23:10:29.780Z,16.17
2023-09-11T23:15:51.644Z,16.23
2023-09-11T23:21:13.627Z,16.42
2023-09-11T23:26:35.438Z,16.17
2023-09-11T23:31:57.427Z,16.52
2023-09-11T23:37:19.271Z,16.70
2023-09-11T23:42:41.083Z,17.98
2023-09-11T23:48:03.006Z,17.48
2023-09-11T23:53:24.784Z,16.27
2023-09-11T23:58:46.535Z,15.80
